sensor_id;sensor_type;location;lat;lon;timestamp;temperature;humidity
75164;HTU21D;63746;45.402;37.922;2024-01-15T00:00:20;4.09;75.92
75164;HTU21D;63746;45.402;37.922;2024-01-15T00:02:47;4.10;75.77
75164;HTU21D;63746;45.402;37.922;2024-01-15T00:05:13;4.10;75.79
75164;HTU21D;63746;45.402;37.922;2024-01-15T00:07:39;4.15;75.71
75164;HTU21D;63746;45.402;37.922;2024-01-15T00:10:05;4.14;75.54
75164;HTU21D;63746;45.402;37.922;2024-01-15T00:12:31;4.14;75.40
75164;HTU21D;63746;45.402;37.922;2024-01-15T00:14:57;4.13;75.40
75164;HTU21D;63746;45.402;37.922;2024-01-15T00:17:23;4.13;75.15
75164;HTU21D;63746;45.402;37.922;2024-01-15T00:19:49;4.10;75.26
75164;HTU21D;63746;45.402;37.922;2024-01-15T00:22:15;4.12;75.11
75164;HTU21D;63746;45.402;37.922;2024-01-15T00:24:41;4.09;75.24
75164;HTU21D;63746;45.402;37.922;2024-01-15T00:27:07;4.10;75.15
75164;HTU21D;63746;45.402;37.922;2024-01-15T00:29:33;4.13;75.24
75164;HTU21D;63746;45.402;37.922;2024-01-15T00:32:00;4.13;75.23
75164;HTU21D;63746;45.402;37.922;2024-01-15T00:34:26;4.13;75.26
75164;HTU21D;63746;45.402;37.922;2024-01-15T00:36:52;4.13;74.99
75164;HTU21D;63746;45.402;37.922;2024-01-15T00:39:18;4.15;75.16
75164;HTU21D;63746;45.402;37.922;2024-01-15T00:41:44;4.16;74.72
75164;HTU21D;63746;45.402;37.922;2024-01-15T00:44:10;4.15;74.95
75164;HTU21D;63746;45.402;37.922;2024-01-15T00:46:46;4.15;74.97
75164;HTU21D;63746;45.402;37.922;2024-01-15T00:49:15;4.12;74.75
75164;HTU21D;63746;45.402;37.922;2024-01-15T00:51:41;4.05;74.34
75164;HTU21D;63746;45.402;37.922;2024-01-15T00:54:07;3.97;74.73
75164;HTU21D;63746;45.402;37.922;2024-01-15T00:56:33;3.88;75.10
75164;HTU21D;63746;45.402;37.922;2024-01-15T00:59:00;3.85;75.43
75164;HTU21D;63746;45.402;37.922;2024-01-15T01:01:26;3.83;75.81
75164;HTU21D;63746;45.402;37.922;2024-01-15T01:03:52;3.82;76.02
75164;HTU21D;63746;45.402;37.922;2024-01-15T01:06:18;3.80;76.14
75164;HTU21D;63746;45.402;37.922;2024-01-15T01:08:44;3.78;76.20
75164;HTU21D;63746;45.402;37.922;2024-01-15T01:11:13;3.78;76.52
75164;HTU21D;63746;45.402;37.922;2024-01-15T01:13:39;3.74;76.55
75164;HTU21D;63746;45.402;37.922;2024-01-15T01:16:05;3.74;76.53
75164;HTU21D;63746;45.402;37.922;2024-01-15T01:18:31;3.71;76.54
75164;HTU21D;63746;45.402;37.922;2024-01-15T01:20:57;3.71;76.65
75164;HTU21D;63746;45.402;37.922;2024-01-15T01:23:23;3.68;76.73
75164;HTU21D;63746;45.402;37.922;2024-01-15T01:25:49;3.70;76.90
75164;HTU21D;63746;45.402;37.922;2024-01-15T01:28:15;3.69;77.32
75164;HTU21D;63746;45.402;37.922;2024-01-15T01:30:41;3.67;77.29
75164;HTU21D;63746;45.402;37.922;2024-01-15T01:33:07;3.67;77.31
75164;HTU21D;63746;45.402;37.922;2024-01-15T01:35:33;3.65;77.11
75164;HTU21D;63746;45.402;37.922;2024-01-15T01:37:59;3.63;77.29
75164;HTU21D;63746;45.402;37.922;2024-01-15T01:40:25;3.63;77.14
75164;HTU21D;63746;45.402;37.922;2024-01-15T01:42:51;3.61;77.15
75164;HTU21D;63746;45.402;37.922;2024-01-15T01:45:17;3.59;76.99
75164;HTU21D;63746;45.402;37.922;2024-01-15T01:47:43;3.60;76.95
75164;HTU21D;63746;45.402;37.922;2024-01-15T01:50:09;3.57;76.96
75164;HTU21D;63746;45.402;37.922;2024-01-15T01:52:35;3.57;76.89
75164;HTU21D;63746;45.402;37.922;2024-01-15T01:55:02;3.55;76.86
75164;HTU21D;63746;45.402;37.922;2024-01-15T01:57:30;3.53;76.82
75164;HTU21D;63746;45.402;37.922;2024-01-15T01:59:56;3.52;76.83
75164;HTU21D;63746;45.402;37.922;2024-01-15T02:02:24;3.50;76.83
75164;HTU21D;63746;45.402;37.922;2024-01-15T02:04:50;3.49;76.79
75164;HTU21D;63746;45.402;37.922;2024-01-15T02:07:16;3.47;76.80
75164;HTU21D;63746;45.402;37.922;2024-01-15T02:09:44;3.45;76.77
75164;HTU21D;63746;45.402;37.922;2024-01-15T02:12:11;3.44;76.84
75164;HTU21D;63746;45.402;37.922;2024-01-15T02:14:37;3.43;76.85
75164;HTU21D;63746;45.402;37.922;2024-01-15T02:17:03;3.41;76.82
75164;HTU21D;63746;45.402;37.922;2024-01-15T02:19:29;3.40;76.76
75164;HTU21D;63746;45.402;37.922;2024-01-15T02:21:55;3.38;76.76
75164;HTU21D;63746;45.402;37.922;2024-01-15T02:24:21;3.38;76.76
75164;HTU21D;63746;45.402;37.922;2024-01-15T02:26:48;3.35;76.74
75164;HTU21D;63746;45.402;37.922;2024-01-15T02:29:15;3.36;76.78
75164;HTU21D;63746;45.402;37.922;2024-01-15T02:31:41;3.34;76.79
75164;HTU21D;63746;45.402;37.922;2024-01-15T02:34:07;3.34;76.85
75164;HTU21D;63746;45.402;37.922;2024-01-15T02:36:33;3.33;76.86
75164;HTU21D;63746;45.402;37.922;2024-01-15T02:38:59;3.34;76.86
75164;HTU21D;63746;45.402;37.922;2024-01-15T02:41:25;3.34;76.86
75164;HTU21D;63746;45.402;37.922;2024-01-15T02:43:51;3.38;76.89
75164;HTU21D;63746;45.402;37.922;2024-01-15T02:46:17;3.35;76.85
75164;HTU21D;63746;45.402;37.922;2024-01-15T02:48:43;3.36;76.86
75164;HTU21D;63746;45.402;37.922;2024-01-15T02:51:09;3.35;76.83
75164;HTU21D;63746;45.402;37.922;2024-01-15T02:53:36;3.38;76.91
75164;HTU21D;63746;45.402;37.922;2024-01-15T02:56:03;3.38;76.90
75164;HTU21D;63746;45.402;37.922;2024-01-15T02:58:29;3.40;77.01
75164;HTU21D;63746;45.402;37.922;2024-01-15T03:00:55;3.44;77.05
75164;HTU21D;63746;45.402;37.922;2024-01-15T03:03:21;3.47;77.08
75164;HTU21D;63746;45.402;37.922;2024-01-15T03:05:47;3.49;77.06
75164;HTU21D;63746;45.402;37.922;2024-01-15T03:08:13;3.50;76.94
75164;HTU21D;63746;45.402;37.922;2024-01-15T03:10:39;3.48;76.74
75164;HTU21D;63746;45.402;37.922;2024-01-15T03:13:05;3.46;76.70
75164;HTU21D;63746;45.402;37.922;2024-01-15T03:15:31;3.45;76.56
75164;HTU21D;63746;45.402;37.922;2024-01-15T03:17:57;3.41;76.53
75164;HTU21D;63746;45.402;37.922;2024-01-15T03:20:23;3.40;76.55
75164;HTU21D;63746;45.402;37.922;2024-01-15T03:22:49;3.40;76.58
75164;HTU21D;63746;45.402;37.922;2024-01-15T03:25:15;3.38;76.57
75164;HTU21D;63746;45.402;37.922;2024-01-15T03:27:41;3.36;76.70
75164;HTU21D;63746;45.402;37.922;2024-01-15T03:30:08;3.38;76.76
75164;HTU21D;63746;45.402;37.922;2024-01-15T03:32:34;3.40;76.82
75164;HTU21D;63746;45.402;37.922;2024-01-15T03:35:00;3.44;76.92
75164;HTU21D;63746;45.402;37.922;2024-01-15T03:37:26;3.44;76.87
75164;HTU21D;63746;45.402;37.922;2024-01-15T03:39:52;3.43;76.89
75164;HTU21D;63746;45.402;37.922;2024-01-15T03:42:18;3.44;76.95
75164;HTU21D;63746;45.402;37.922;2024-01-15T03:44:44;3.45;76.90
75164;HTU21D;63746;45.402;37.922;2024-01-15T03:47:10;3.45;76.92
75164;HTU21D;63746;45.402;37.922;2024-01-15T03:49:36;3.47;76.94
75164;HTU21D;63746;45.402;37.922;2024-01-15T03:52:02;3.48;76.92
75164;HTU21D;63746;45.402;37.922;2024-01-15T03:54:28;3.50;76.96
75164;HTU21D;63746;45.402;37.922;2024-01-15T03:56:54;3.52;77.08
75164;HTU21D;63746;45.402;37.922;2024-01-15T03:59:20;3.54;77.07
75164;HTU21D;63746;45.402;37.922;2024-01-15T04:01:52;3.57;77.11
75164;HTU21D;63746;45.402;37.922;2024-01-15T04:04:18;3.61;77.14
75164;HTU21D;63746;45.402;37.922;2024-01-15T04:06:44;3.62;77.14
75164;HTU21D;63746;45.402;37.922;2024-01-15T04:09:12;3.67;77.18
75164;HTU21D;63746;45.402;37.922;2024-01-15T04:11:39;3.69;77.17
75164;HTU21D;63746;45.402;37.922;2024-01-15T04:14:05;3.72;77.10
75164;HTU21D;63746;45.402;37.922;2024-01-15T04:16:31;3.73;77.11
75164;HTU21D;63746;45.402;37.922;2024-01-15T04:18:58;3.76;77.13
75164;HTU21D;63746;45.402;37.922;2024-01-15T04:21:24;3.78;77.03
75164;HTU21D;63746;45.402;37.922;2024-01-15T04:23:49;3.79;77.04
75164;HTU21D;63746;45.402;37.922;2024-01-15T04:26:16;3.82;76.97
75164;HTU21D;63746;45.402;37.922;2024-01-15T04:28:41;3.84;77.00
75164;HTU21D;63746;45.402;37.922;2024-01-15T04:31:07;3.86;76.92
75164;HTU21D;63746;45.402;37.922;2024-01-15T04:33:33;3.87;76.96
75164;HTU21D;63746;45.402;37.922;2024-01-15T04:36:04;3.87;76.83
75164;HTU21D;63746;45.402;37.922;2024-01-15T04:38:30;3.87;76.82
75164;HTU21D;63746;45.402;37.922;2024-01-15T04:40:58;3.85;76.70
75164;HTU21D;63746;45.402;37.922;2024-01-15T04:43:24;3.86;76.66
75164;HTU21D;63746;45.402;37.922;2024-01-15T04:45:50;3.85;76.77
75164;HTU21D;63746;45.402;37.922;2024-01-15T04:48:16;3.87;76.71
75164;HTU21D;63746;45.402;37.922;2024-01-15T04:50:42;3.88;76.70
75164;HTU21D;63746;45.402;37.922;2024-01-15T04:53:08;3.88;76.78
75164;HTU21D;63746;45.402;37.922;2024-01-15T04:55:34;3.91;76.82
75164;HTU21D;63746;45.402;37.922;2024-01-15T04:58:00;3.90;76.79
75164;HTU21D;63746;45.402;37.922;2024-01-15T05:00:26;3.92;76.80
75164;HTU21D;63746;45.402;37.922;2024-01-15T05:02:52;3.92;76.76
75164;HTU21D;63746;45.402;37.922;2024-01-15T05:05:18;3.93;76.74
75164;HTU21D;63746;45.402;37.922;2024-01-15T05:07:44;3.94;76.71
75164;HTU21D;63746;45.402;37.922;2024-01-15T05:10:10;3.94;76.72
75164;HTU21D;63746;45.402;37.922;2024-01-15T05:12:37;3.94;76.63
75164;HTU21D;63746;45.402;37.922;2024-01-15T05:15:03;3.91;76.60
75164;HTU21D;63746;45.402;37.922;2024-01-15T05:17:29;3.91;76.62
75164;HTU21D;63746;45.402;37.922;2024-01-15T05:19:56;3.92;76.71
75164;HTU21D;63746;45.402;37.922;2024-01-15T05:22:22;3.92;76.73
75164;HTU21D;63746;45.402;37.922;2024-01-15T05:24:50;3.94;76.73
75164;HTU21D;63746;45.402;37.922;2024-01-15T05:27:16;3.93;76.75
75164;HTU21D;63746;45.402;37.922;2024-01-15T05:29:42;3.92;76.60
75164;HTU21D;63746;45.402;37.922;2024-01-15T05:32:08;3.89;76.53
75164;HTU21D;63746;45.402;37.922;2024-01-15T05:34:34;3.87;76.54
75164;HTU21D;63746;45.402;37.922;2024-01-15T05:37:00;3.84;76.53
75164;HTU21D;63746;45.402;37.922;2024-01-15T05:39:26;3.82;76.51
75164;HTU21D;63746;45.402;37.922;2024-01-15T05:41:52;3.77;76.59
75164;HTU21D;63746;45.402;37.922;2024-01-15T05:44:18;3.75;76.61
75164;HTU21D;63746;45.402;37.922;2024-01-15T05:46:44;3.73;76.63
75164;HTU21D;63746;45.402;37.922;2024-01-15T05:49:10;3.72;76.77
75164;HTU21D;63746;45.402;37.922;2024-01-15T05:51:36;3.73;76.88
75164;HTU21D;63746;45.402;37.922;2024-01-15T05:54:02;3.77;76.96
75164;HTU21D;63746;45.402;37.922;2024-01-15T05:56:28;3.78;77.03
75164;HTU21D;63746;45.402;37.922;2024-01-15T05:58:54;3.78;76.98
75164;HTU21D;63746;45.402;37.922;2024-01-15T06:01:20;3.79;77.03
75164;HTU21D;63746;45.402;37.922;2024-01-15T06:03:46;3.82;77.01
75164;HTU21D;63746;45.402;37.922;2024-01-15T06:06:12;3.82;77.05
75164;HTU21D;63746;45.402;37.922;2024-01-15T06:08:39;3.79;77.00
75164;HTU21D;63746;45.402;37.922;2024-01-15T06:11:06;3.78;76.91
75164;HTU21D;63746;45.402;37.922;2024-01-15T06:13:33;3.76;76.91
75164;HTU21D;63746;45.402;37.922;2024-01-15T06:15:59;3.75;76.95
75164;HTU21D;63746;45.402;37.922;2024-01-15T06:18:25;3.75;76.93
75164;HTU21D;63746;45.402;37.922;2024-01-15T06:20:51;3.75;76.98
75164;HTU21D;63746;45.402;37.922;2024-01-15T06:23:17;3.72;76.92
75164;HTU21D;63746;45.402;37.922;2024-01-15T06:25:43;3.70;76.96
75164;HTU21D;63746;45.402;37.922;2024-01-15T06:28:09;3.72;77.08
75164;HTU21D;63746;45.402;37.922;2024-01-15T06:30:35;3.73;77.17
75164;HTU21D;63746;45.402;37.922;2024-01-15T06:33:01;3.78;77.31
75164;HTU21D;63746;45.402;37.922;2024-01-15T06:35:27;3.85;77.46
75164;HTU21D;63746;45.402;37.922;2024-01-15T06:37:53;3.94;77.72
75164;HTU21D;63746;45.402;37.922;2024-01-15T06:40:19;4.05;77.89
75164;HTU21D;63746;45.402;37.922;2024-01-15T06:42:46;4.19;78.11
75164;HTU21D;63746;45.402;37.922;2024-01-15T06:45:12;4.32;78.27
75164;HTU21D;63746;45.402;37.922;2024-01-15T06:47:38;4.44;78.18
75164;HTU21D;63746;45.402;37.922;2024-01-15T06:50:04;4.50;77.97
75164;HTU21D;63746;45.402;37.922;2024-01-15T06:52:32;4.54;77.75
75164;HTU21D;63746;45.402;37.922;2024-01-15T06:54:58;4.59;77.66
75164;HTU21D;63746;45.402;37.922;2024-01-15T06:57:24;4.65;77.52
75164;HTU21D;63746;45.402;37.922;2024-01-15T06:59:50;4.66;77.41
75164;HTU21D;63746;45.402;37.922;2024-01-15T07:02:16;4.66;77.25
75164;HTU21D;63746;45.402;37.922;2024-01-15T07:04:42;4.65;77.07
75164;HTU21D;63746;45.402;37.922;2024-01-15T07:07:08;4.65;76.94
75164;HTU21D;63746;45.402;37.922;2024-01-15T07:09:34;4.64;76.92
75164;HTU21D;63746;45.402;37.922;2024-01-15T07:12:00;4.63;76.94
75164;HTU21D;63746;45.402;37.922;2024-01-15T07:14:26;4.63;76.95
75164;HTU21D;63746;45.402;37.922;2024-01-15T07:16:52;4.61;76.85
75164;HTU21D;63746;45.402;37.922;2024-01-15T07:19:18;4.59;76.86
75164;HTU21D;63746;45.402;37.922;2024-01-15T07:21:45;4.57;76.82
75164;HTU21D;63746;45.402;37.922;2024-01-15T07:24:11;4.57;76.80
75164;HTU21D;63746;45.402;37.922;2024-01-15T07:26:37;4.53;76.77
75164;HTU21D;63746;45.402;37.922;2024-01-15T07:29:03;4.51;76.79
75164;HTU21D;63746;45.402;37.922;2024-01-15T07:31:29;4.50;76.82
75164;HTU21D;63746;45.402;37.922;2024-01-15T07:33:55;4.47;76.80
75164;HTU21D;63746;45.402;37.922;2024-01-15T07:36:21;4.42;76.75
75164;HTU21D;63746;45.402;37.922;2024-01-15T07:38:47;4.39;76.73
75164;HTU21D;63746;45.402;37.922;2024-01-15T07:41:13;4.41;76.91
75164;HTU21D;63746;45.402;37.922;2024-01-15T07:43:39;4.44;77.18
75164;HTU21D;63746;45.402;37.922;2024-01-15T07:46:06;4.46;77.30
75164;HTU21D;63746;45.402;37.922;2024-01-15T07:48:32;4.49;77.31
75164;HTU21D;63746;45.402;37.922;2024-01-15T07:50:58;4.53;77.37
75164;HTU21D;63746;45.402;37.922;2024-01-15T07:53:24;4.56;77.38
75164;HTU21D;63746;45.402;37.922;2024-01-15T07:55:50;4.59;77.34
75164;HTU21D;63746;45.402;37.922;2024-01-15T07:58:16;4.60;77.27
75164;HTU21D;63746;45.402;37.922;2024-01-15T08:00:43;4.62;77.34
75164;HTU21D;63746;45.402;37.922;2024-01-15T08:03:09;4.67;77.40
75164;HTU21D;63746;45.402;37.922;2024-01-15T08:05:35;4.75;77.59
75164;HTU21D;63746;45.402;37.922;2024-01-15T08:08:01;4.87;77.82
75164;HTU21D;63746;45.402;37.922;2024-01-15T08:10:27;4.95;77.82
75164;HTU21D;63746;45.402;37.922;2024-01-15T08:12:54;5.00;77.71
75164;HTU21D;63746;45.402;37.922;2024-01-15T08:15:20;5.04;77.61
75164;HTU21D;63746;45.402;37.922;2024-01-15T08:17:46;5.08;77.65
75164;HTU21D;63746;45.402;37.922;2024-01-15T08:20:12;5.33;78.63
75164;HTU21D;63746;45.402;37.922;2024-01-15T08:22:39;5.40;78.08
75164;HTU21D;63746;45.402;37.922;2024-01-15T08:25:05;5.38;77.45
75164;HTU21D;63746;45.402;37.922;2024-01-15T08:27:31;5.36;77.15
75164;HTU21D;63746;45.402;37.922;2024-01-15T08:29:57;5.35;77.10
75164;HTU21D;63746;45.402;37.922;2024-01-15T08:32:23;5.36;77.08
75164;HTU21D;63746;45.402;37.922;2024-01-15T08:34:49;5.36;77.00
75164;HTU21D;63746;45.402;37.922;2024-01-15T08:37:18;5.36;77.01
75164;HTU21D;63746;45.402;37.922;2024-01-15T08:39:44;5.34;76.86
75164;HTU21D;63746;45.402;37.922;2024-01-15T08:42:10;5.31;76.78
75164;HTU21D;63746;45.402;37.922;2024-01-15T08:44:37;5.30;76.69
75164;HTU21D;63746;45.402;37.922;2024-01-15T08:47:05;5.22;76.56
75164;HTU21D;63746;45.402;37.922;2024-01-15T08:49:31;5.16;76.49
75164;HTU21D;63746;45.402;37.922;2024-01-15T08:51:57;5.08;76.50
75164;HTU21D;63746;45.402;37.922;2024-01-15T08:54:22;5.03;76.57
75164;HTU21D;63746;45.402;37.922;2024-01-15T08:56:48;5.00;76.59
75164;HTU21D;63746;45.402;37.922;2024-01-15T08:59:14;4.97;76.79
75164;HTU21D;63746;45.402;37.922;2024-01-15T09:01:40;4.94;76.80
75164;HTU21D;63746;45.402;37.922;2024-01-15T09:04:06;4.94;76.86
75164;HTU21D;63746;45.402;37.922;2024-01-15T09:06:32;4.94;76.99
75164;HTU21D;63746;45.402;37.922;2024-01-15T09:08:58;4.98;77.24
75164;HTU21D;63746;45.402;37.922;2024-01-15T09:11:25;5.08;77.67
75164;HTU21D;63746;45.402;37.922;2024-01-15T09:13:51;5.20;77.89
75164;HTU21D;63746;45.402;37.922;2024-01-15T09:16:17;5.33;77.93
75164;HTU21D;63746;45.402;37.922;2024-01-15T09:18:43;5.42;77.95
75164;HTU21D;63746;45.402;37.922;2024-01-15T09:21:10;5.50;77.83
75164;HTU21D;63746;45.402;37.922;2024-01-15T09:23:36;5.55;77.66
75164;HTU21D;63746;45.402;37.922;2024-01-15T09:26:02;5.55;77.42
75164;HTU21D;63746;45.402;37.922;2024-01-15T09:28:28;5.55;77.28
75164;HTU21D;63746;45.402;37.922;2024-01-15T09:30:54;5.52;77.08
75164;HTU21D;63746;45.402;37.922;2024-01-15T09:33:20;5.52;77.01
75164;HTU21D;63746;45.402;37.922;2024-01-15T09:35:46;5.54;77.08
75164;HTU21D;63746;45.402;37.922;2024-01-15T09:38:12;5.62;77.43
75164;HTU21D;63746;45.402;37.922;2024-01-15T09:40:38;5.70;77.52
75164;HTU21D;63746;45.402;37.922;2024-01-15T09:43:05;5.71;77.36
75164;HTU21D;63746;45.402;37.922;2024-01-15T09:45:31;5.68;77.07
75164;HTU21D;63746;45.402;37.922;2024-01-15T09:47:57;5.63;76.86
75164;HTU21D;63746;45.402;37.922;2024-01-15T09:50:23;5.59;76.76
75164;HTU21D;63746;45.402;37.922;2024-01-15T09:52:49;5.56;76.81
75164;HTU21D;63746;45.402;37.922;2024-01-15T09:55:17;5.56;76.95
75164;HTU21D;63746;45.402;37.922;2024-01-15T09:57:44;5.55;76.94
75164;HTU21D;63746;45.402;37.922;2024-01-15T10:00:12;5.55;77.00
75164;HTU21D;63746;45.402;37.922;2024-01-15T10:02:38;5.55;76.99
75164;HTU21D;63746;45.402;37.922;2024-01-15T10:05:04;5.52;76.82
75164;HTU21D;63746;45.402;37.922;2024-01-15T10:07:35;5.48;76.70
75164;HTU21D;63746;45.402;37.922;2024-01-15T10:10:02;5.47;76.76
75164;HTU21D;63746;45.402;37.922;2024-01-15T10:12:29;5.46;76.86
75164;HTU21D;63746;45.402;37.922;2024-01-15T10:14:58;5.43;76.88
75164;HTU21D;63746;45.402;37.922;2024-01-15T10:17:24;5.43;76.82
75164;HTU21D;63746;45.402;37.922;2024-01-15T10:19:54;5.42;76.90
75164;HTU21D;63746;45.402;37.922;2024-01-15T10:22:20;5.42;76.92
75164;HTU21D;63746;45.402;37.922;2024-01-15T10:24:46;5.40;76.92
75164;HTU21D;63746;45.402;37.922;2024-01-15T10:27:12;5.42;77.02
75164;HTU21D;63746;45.402;37.922;2024-01-15T10:29:40;5.45;77.18
75164;HTU21D;63746;45.402;37.922;2024-01-15T10:32:08;5.49;77.20
75164;HTU21D;63746;45.402;37.922;2024-01-15T10:34:38;5.53;77.33
75164;HTU21D;63746;45.402;37.922;2024-01-15T10:37:08;5.63;77.61
75164;HTU21D;63746;45.402;37.922;2024-01-15T10:39:35;5.69;77.81
75164;HTU21D;63746;45.402;37.922;2024-01-15T10:42:02;5.74;77.72
75164;HTU21D;63746;45.402;37.922;2024-01-15T10:44:29;5.76;77.61
75164;HTU21D;63746;45.402;37.922;2024-01-15T10:46:55;5.76;77.47
75164;HTU21D;63746;45.402;37.922;2024-01-15T10:49:22;5.78;77.28
75164;HTU21D;63746;45.402;37.922;2024-01-15T10:51:52;5.79;77.42
75164;HTU21D;63746;45.402;37.922;2024-01-15T10:54:19;5.77;77.32
75164;HTU21D;63746;45.402;37.922;2024-01-15T10:56:46;5.78;77.31
75164;HTU21D;63746;45.402;37.922;2024-01-15T10:59:13;5.80;77.40
75164;HTU21D;63746;45.402;37.922;2024-01-15T11:01:39;5.83;77.42
75164;HTU21D;63746;45.402;37.922;2024-01-15T11:04:07;5.90;77.50
75164;HTU21D;63746;45.402;37.922;2024-01-15T11:06:44;5.95;77.44
75164;HTU21D;63746;45.402;37.922;2024-01-15T11:09:11;5.99;77.63
75164;HTU21D;63746;45.402;37.922;2024-01-15T11:11:44;6.06;77.66
75164;HTU21D;63746;45.402;37.922;2024-01-15T11:14:10;6.10;77.50
75164;HTU21D;63746;45.402;37.922;2024-01-15T11:16:54;6.14;77.44
75164;HTU21D;63746;45.402;37.922;2024-01-15T11:19:22;6.15;77.46
75164;HTU21D;63746;45.402;37.922;2024-01-15T11:21:48;6.17;77.30
75164;HTU21D;63746;45.402;37.922;2024-01-15T11:24:39;6.20;77.15
75164;HTU21D;63746;45.402;37.922;2024-01-15T11:27:07;6.17;77.09
75164;HTU21D;63746;45.402;37.922;2024-01-15T11:29:36;6.19;77.14
75164;HTU21D;63746;45.402;37.922;2024-01-15T11:32:08;6.19;77.15
75164;HTU21D;63746;45.402;37.922;2024-01-15T11:34:54;6.23;77.10
75164;HTU21D;63746;45.402;37.922;2024-01-15T11:37:25;6.22;77.20
75164;HTU21D;63746;45.402;37.922;2024-01-15T11:40:02;6.22;77.28
75164;HTU21D;63746;45.402;37.922;2024-01-15T11:42:36;6.35;78.08
75164;HTU21D;63746;45.402;37.922;2024-01-15T11:45:02;6.41;77.95
75164;HTU21D;63746;45.402;37.922;2024-01-15T11:50:21;6.55;77.74
75164;HTU21D;63746;45.402;37.922;2024-01-15T11:52:59;6.58;77.66
75164;HTU21D;63746;45.402;37.922;2024-01-15T11:55:45;6.61;77.50
75164;HTU21D;63746;45.402;37.922;2024-01-15T11:58:11;6.64;77.34
75164;HTU21D;63746;45.402;37.922;2024-01-15T12:00:42;6.64;77.21
75164;HTU21D;63746;45.402;37.922;2024-01-15T12:03:09;6.67;77.07
75164;HTU21D;63746;45.402;37.922;2024-01-15T12:05:37;6.67;77.02
75164;HTU21D;63746;45.402;37.922;2024-01-15T12:08:04;6.66;77.03
75164;HTU21D;63746;45.402;37.922;2024-01-15T12:10:37;6.65;77.03
75164;HTU21D;63746;45.402;37.922;2024-01-15T12:13:11;6.66;76.97
75164;HTU21D;63746;45.402;37.922;2024-01-15T12:15:39;6.63;77.02
75164;HTU21D;63746;45.402;37.922;2024-01-15T12:18:09;6.59;77.05
75164;HTU21D;63746;45.402;37.922;2024-01-15T12:20:36;6.55;76.93
75164;HTU21D;63746;45.402;37.922;2024-01-15T12:23:03;6.50;76.85
75164;HTU21D;63746;45.402;37.922;2024-01-15T12:25:30;6.44;76.70
75164;HTU21D;63746;45.402;37.922;2024-01-15T12:27:56;6.39;76.57
75164;HTU21D;63746;45.402;37.922;2024-01-15T12:30:23;6.36;76.57
75164;HTU21D;63746;45.402;37.922;2024-01-15T12:32:49;6.34;76.69
75164;HTU21D;63746;45.402;37.922;2024-01-15T12:35:15;6.31;76.62
75164;HTU21D;63746;45.402;37.922;2024-01-15T12:37:43;6.29;77.31
75164;HTU21D;63746;45.402;37.922;2024-01-15T12:40:12;6.34;77.34
75164;HTU21D;63746;45.402;37.922;2024-01-15T12:42:41;6.35;77.73
75164;HTU21D;63746;45.402;37.922;2024-01-15T12:45:09;6.37;77.53
75164;HTU21D;63746;45.402;37.922;2024-01-15T12:47:36;6.36;77.36
75164;HTU21D;63746;45.402;37.922;2024-01-15T12:50:06;6.33;77.28
75164;HTU21D;63746;45.402;37.922;2024-01-15T12:52:33;6.31;77.38
75164;HTU21D;63746;45.402;37.922;2024-01-15T12:54:59;6.31;77.40
75164;HTU21D;63746;45.402;37.922;2024-01-15T12:57:25;6.29;77.40
75164;HTU21D;63746;45.402;37.922;2024-01-15T12:59:51;6.29;77.31
75164;HTU21D;63746;45.402;37.922;2024-01-15T13:02:17;6.28;77.27
75164;HTU21D;63746;45.402;37.922;2024-01-15T13:04:43;6.28;77.21
75164;HTU21D;63746;45.402;37.922;2024-01-15T13:07:09;6.28;77.24
75164;HTU21D;63746;45.402;37.922;2024-01-15T13:09:35;6.29;77.21
75164;HTU21D;63746;45.402;37.922;2024-01-15T13:12:02;6.30;77.21
75164;HTU21D;63746;45.402;37.922;2024-01-15T13:14:29;6.30;77.11
75164;HTU21D;63746;45.402;37.922;2024-01-15T13:16:55;6.28;77.07
75164;HTU21D;63746;45.402;37.922;2024-01-15T13:19:22;6.29;77.01
75164;HTU21D;63746;45.402;37.922;2024-01-15T13:21:48;6.28;76.94
75164;HTU21D;63746;45.402;37.922;2024-01-15T13:24:19;6.28;76.92
75164;HTU21D;63746;45.402;37.922;2024-01-15T13:26:45;6.28;76.93
75164;HTU21D;63746;45.402;37.922;2024-01-15T13:29:12;6.26;76.91
75164;HTU21D;63746;45.402;37.922;2024-01-15T13:31:39;6.26;76.85
75164;HTU21D;63746;45.402;37.922;2024-01-15T13:34:05;6.24;76.89
75164;HTU21D;63746;45.402;37.922;2024-01-15T13:36:32;6.23;76.94
75164;HTU21D;63746;45.402;37.922;2024-01-15T13:38:59;6.21;76.82
75164;HTU21D;63746;45.402;37.922;2024-01-15T13:41:25;6.20;76.75
75164;HTU21D;63746;45.402;37.922;2024-01-15T13:43:54;6.19;76.73
75164;HTU21D;63746;45.402;37.922;2024-01-15T13:46:22;6.16;76.71
75164;HTU21D;63746;45.402;37.922;2024-01-15T13:48:49;6.16;76.70
75164;HTU21D;63746;45.402;37.922;2024-01-15T13:51:15;6.13;76.66
75164;HTU21D;63746;45.402;37.922;2024-01-15T13:53:41;6.13;76.82
75164;HTU21D;63746;45.402;37.922;2024-01-15T13:56:07;6.15;76.91
75164;HTU21D;63746;45.402;37.922;2024-01-15T13:58:36;6.15;76.95
75164;HTU21D;63746;45.402;37.922;2024-01-15T14:01:03;6.15;76.91
75164;HTU21D;63746;45.402;37.922;2024-01-15T14:03:32;6.19;76.90
75164;HTU21D;63746;45.402;37.922;2024-01-15T14:06:00;6.19;76.92
75164;HTU21D;63746;45.402;37.922;2024-01-15T14:08:26;6.22;76.99
75164;HTU21D;63746;45.402;37.922;2024-01-15T14:10:53;6.24;76.92
75164;HTU21D;63746;45.402;37.922;2024-01-15T14:13:20;6.27;76.92
75164;HTU21D;63746;45.402;37.922;2024-01-15T14:15:49;6.25;76.82
75164;HTU21D;63746;45.402;37.922;2024-01-15T14:18:16;6.25;76.70
75164;HTU21D;63746;45.402;37.922;2024-01-15T14:20:43;6.25;76.68
75164;HTU21D;63746;45.402;37.922;2024-01-15T14:23:09;6.25;76.63
75164;HTU21D;63746;45.402;37.922;2024-01-15T14:25:36;6.24;76.59
75164;HTU21D;63746;45.402;37.922;2024-01-15T14:28:02;6.24;76.60
75164;HTU21D;63746;45.402;37.922;2024-01-15T14:30:28;6.23;76.53
75164;HTU21D;63746;45.402;37.922;2024-01-15T14:32:54;6.22;76.47
75164;HTU21D;63746;45.402;37.922;2024-01-15T14:35:20;6.22;76.44
75164;HTU21D;63746;45.402;37.922;2024-01-15T14:37:46;6.21;76.47
75164;HTU21D;63746;45.402;37.922;2024-01-15T14:40:14;6.21;76.55
75164;HTU21D;63746;45.402;37.922;2024-01-15T14:42:42;6.22;76.63
75164;HTU21D;63746;45.402;37.922;2024-01-15T14:45:09;6.25;76.63
75164;HTU21D;63746;45.402;37.922;2024-01-15T14:47:40;6.24;76.61
75164;HTU21D;63746;45.402;37.922;2024-01-15T14:50:07;6.25;76.53
75164;HTU21D;63746;45.402;37.922;2024-01-15T14:52:34;6.23;76.49
75164;HTU21D;63746;45.402;37.922;2024-01-15T14:55:00;6.23;76.49
75164;HTU21D;63746;45.402;37.922;2024-01-15T14:57:26;6.24;76.47
75164;HTU21D;63746;45.402;37.922;2024-01-15T14:59:52;6.24;76.47
75164;HTU21D;63746;45.402;37.922;2024-01-15T15:02:19;6.24;76.47
75164;HTU21D;63746;45.402;37.922;2024-01-15T15:04:45;6.23;76.46
75164;HTU21D;63746;45.402;37.922;2024-01-15T15:07:11;6.24;76.40
75164;HTU21D;63746;45.402;37.922;2024-01-15T15:09:39;6.23;76.38
75164;HTU21D;63746;45.402;37.922;2024-01-15T15:12:05;6.22;76.41
75164;HTU21D;63746;45.402;37.922;2024-01-15T15:14:32;6.21;76.43